Time;durP1;ratioP1;P1;durP2;ratioP2;P2;SDS_P1;SDS_P2;PMS_P1;PMS_P2;Temp;Humidity;BMP_temperature;BMP_pressure;BME280_temperature;BME280_humidity;BME280_pressure;Samples;Min_cycle;Max_cycle;Signal;HPM_P1;HPM_P2
2021/03/09 00:01:55;;;;;;;15.27;9.88;;;;;;;1.66;67.67;95848.94;4855109;29;20054;-44
2021/03/09 00:04:21;;;;;;;17.73;10.98;;;;;;;1.58;67.96;95845.78;4846582;29;20054;-41
2021/03/09 00:06:49;;;;;;;16.27;11.23;;;;;;;1.58;68.04;95845.78;4863479;29;20136;-39
2021/03/09 00:09:15;;;;;;;19.80;11.43;;;;;;;1.72;67.68;95840.63;4863045;29;20527;-40
2021/03/09 00:11:41;;;;;;;16.05;10.85;;;;;;;1.36;68.56;95842.72;4851422;29;20089;-41
2021/03/09 00:14:08;;;;;;;16.70;10.23;;;;;;;0.92;70.61;95841.59;4844545;29;20061;-40
2021/03/09 00:16:34;;;;;;;18.10;10.90;;;;;;;1.28;69.37;95844.09;4847466;29;20057;-39
2021/03/09 00:19:01;;;;;;;15.00;10.57;;;;;;;1.29;69.17;95826.25;4844959;29;20061;-41
2021/03/09 00:21:27;;;;;;;18.85;11.45;;;;;;;1.65;68.03;95837.47;4858859;29;20101;-43
2021/03/09 00:23:54;;;;;;;16.95;11.00;;;;;;;1.88;66.92;95833.28;4855224;29;20471;-41
2021/03/09 00:26:23;;;;;;;17.58;10.55;;;;;;;1.55;68.00;95833.00;4857507;29;20149;-43
2021/03/09 00:28:49;;;;;;;18.30;10.45;;;;;;;1.74;67.06;95827.81;4861823;29;20061;-41
2021/03/09 00:31:16;;;;;;;17.10;10.82;;;;;;;1.67;67.09;95826.53;4861388;29;20421;-43
2021/03/09 00:33:43;;;;;;;16.63;11.27;;;;;;;1.75;67.08;95831.28;4845530;29;20054;-45
2021/03/09 00:36:12;;;;;;;17.85;11.10;;;;;;;1.23;68.85;95822.78;4843171;29;20078;-40
2021/03/09 00:38:38;;;;;;;18.67;10.68;;;;;;;1.15;69.72;95831.38;4858983;29;20094;-40
2021/03/09 00:41:05;;;;;;;15.90;10.43;;;;;;;1.05;70.53;95824.25;4860511;29;20046;-43
2021/03/09 00:43:31;;;;;;;17.50;11.32;;;;;;;1.45;68.37;95825.06;4842572;29;20579;-41
2021/03/09 00:45:58;;;;;;;16.55;11.20;;;;;;;1.28;68.55;95816.66;4854702;29;20140;-41
2021/03/09 00:48:24;;;;;;;17.98;10.52;;;;;;;1.47;68.01;95822.16;4860957;29;20057;-43
2021/03/09 00:50:51;;;;;;;20.67;11.77;;;;;;;1.33;68.45;95814.78;4860328;29;20132;-44
2021/03/09 00:53:17;;;;;;;16.63;10.85;;;;;;;1.30;68.56;95812.66;4847257;29;20571;-43
2021/03/09 00:55:44;;;;;;;19.77;11.05;;;;;;;1.29;68.94;95810.25;4850601;29;20081;-40
2021/03/09 00:58:10;;;;;;;18.33;11.30;;;;;;;0.93;70.23;95808.56;4861144;29;20133;-43
2021/03/09 01:00:36;;;;;;;18.73;11.32;;;;;;;0.73;71.45;95813.19;4860030;29;20424;-41
2021/03/09 01:03:03;;;;;;;17.10;11.00;;;;;;;0.84;71.39;95812.88;4847880;29;20057;-42
2021/03/09 01:05:30;;;;;;;16.83;11.63;;;;;;;1.23;69.00;95798.03;4860798;29;20137;-41
2021/03/09 01:07:56;;;;;;;17.83;11.48;;;;;;;1.03;70.53;95801.59;4861455;29;20184;-42
2021/03/09 01:10:23;;;;;;;18.00;11.70;;;;;;;1.45;68.60;95805.63;4850387;29;20065;-41
2021/03/09 01:12:49;;;;;;;15.38;11.00;;;;;;;1.29;68.65;95788.94;4844231;29;20054;-41
2021/03/09 01:15:16;;;;;;;16.95;11.00;;;;;;;1.59;67.85;95794.06;4862960;29;20575;-39
2021/03/09 01:17:42;;;;;;;16.85;11.73;;;;;;;1.54;67.88;95795.97;4865519;29;20068;-39
2021/03/09 01:20:10;;;;;;;17.42;11.60;;;;;;;1.19;68.73;95768.47;4864750;29;20109;-39
2021/03/09 01:22:37;;;;;;;19.92;11.63;;;;;;;1.13;69.16;95786.34;4865466;29;20113;-46
2021/03/09 01:25:05;;;;;;;18.58;10.73;;;;;;;1.05;69.03;95789.59;4853632;29;20057;-41
2021/03/09 01:27:32;;;;;;;19.35;11.95;;;;;;;0.77;70.22;95783.06;4845927;29;20087;-39
2021/03/09 01:29:59;;;;;;;19.25;12.70;;;;;;;0.64;70.65;95775.69;4863620;29;20441;-39
2021/03/09 01:32:26;;;;;;;19.80;12.35;;;;;;;0.65;70.75;95782.59;4865269;29;20095;-39
2021/03/09 01:34:53;;;;;;;22.17;13.20;;;;;;;0.80;70.49;95779.88;4849632;29;20058;-39
2021/03/09 01:37:19;;;;;;;19.10;12.07;;;;;;;0.65;70.85;95764.75;4847521;29;20062;-39
2021/03/09 01:39:46;;;;;;;20.20;13.25;;;;;;;0.92;70.06;95758.25;4861537;29;20062;-40
2021/03/09 01:42:12;;;;;;;22.38;12.38;;;;;;;0.95;70.40;95763.03;4864252;29;20456;-39
2021/03/09 01:44:39;;;;;;;18.23;12.38;;;;;;;0.97;70.34;95755.53;4857513;29;20065;-39
2021/03/09 01:47:05;;;;;;;21.27;12.77;;;;;;;1.07;68.55;95747.50;4846984;29;20141;-40
2021/03/09 01:49:34;;;;;;;19.35;12.50;;;;;;;1.38;68.58;95750.75;4859691;29;20050;-42
2021/03/09 01:52:04;;;;;;;19.90;13.00;;;;;;;1.39;68.63;95757.66;4864098;29;20200;-41
2021/03/09 01:54:31;;;;;;;21.00;13.75;;;;;;;0.83;70.95;95758.00;4859321;29;20130;-42
2021/03/09 01:56:57;;;;;;;17.83;11.85;;;;;;;0.90;71.10;95749.72;4845359;29;20057;-40
2021/03/09 01:59:25;;;;;;;19.83;12.68;;;;;;;1.19;69.43;95747.16;4845148;29;20118;-40
2021/03/09 02:01:52;;;;;;;20.08;13.40;;;;;;;1.07;69.61;95739.50;4844618;29;20538;-40
2021/03/09 02:04:19;;;;;;;21.15;13.82;;;;;;;1.08;70.04;95729.66;4846142;29;20664;-40
2021/03/09 02:06:45;;;;;;;21.17;13.80;;;;;;;0.38;73.02;95727.06;4865361;29;20061;-41
2021/03/09 02:09:13;;;;;;;21.85;13.40;;;;;;;0.19;74.30;95740.16;4866065;29;20061;-38
2021/03/09 02:12:03;;;;;;;20.15;12.93;;;;;;;0.33;73.95;95737.75;4860785;29;20054;-44
2021/03/09 02:14:46;;;;;;;20.88;13.48;;;;;;;0.70;72.59;95735.44;4852519;29;20053;-39
2021/03/09 02:17:33;;;;;;;22.08;13.95;;;;;;;0.21;74.62;95736.16;4868210;29;20140;-39
2021/03/09 02:20:31;;;;;;;19.23;12.80;;;;;;;0.45;74.11;95727.56;4867666;29;20057;-39
2021/03/09 02:23:15;;;;;;;21.52;13.15;;;;;;;0.43;73.49;95721.72;4865342;29;20697;-38
2021/03/09 02:26:15;;;;;;;22.23;14.13;;;;;;;0.43;73.57;95719.88;4865241;29;20057;-38
2021/03/09 02:28:44;;;;;;;22.05;13.65;;;;;;;0.65;72.42;95711.50;4863043;29;20105;-40
2021/03/09 02:31:10;;;;;;;20.83;13.55;;;;;;;0.11;75.14;95714.91;4845750;29;20066;-40
2021/03/09 02:33:44;;;;;;;23.25;13.90;;;;;;;0.07;75.52;95711.22;4859331;29;20117;-40
2021/03/09 02:36:16;;;;;;;21.20;14.45;;;;;;;0.19;74.67;95717.00;4864224;29;20065;-40
2021/03/09 02:38:52;;;;;;;22.98;13.75;;;;;;;0.74;72.39;95716.25;4849195;29;20066;-40
2021/03/09 02:41:21;;;;;;;22.75;14.32;;;;;;;0.63;71.98;95713.66;4846435;29;20069;-40
2021/03/09 02:43:50;;;;;;;22.65;14.38;;;;;;;0.67;72.03;95712.03;4861676;29;20057;-40
2021/03/09 02:46:18;;;;;;;25.92;15.63;;;;;;;0.34;73.21;95704.72;4847057;29;20064;-40
2021/03/09 02:48:46;;;;;;;22.75;14.15;;;;;;;-0.07;75.39;95710.16;4858239;29;20144;-40
2021/03/09 02:51:13;;;;;;;24.08;15.32;;;;;;;-0.11;75.64;95714.44;4864733;29;20061;-41
2021/03/09 02:53:46;;;;;;;24.20;14.38;;;;;;;0.15;74.88;95707.97;4860258;29;20129;-40
2021/03/09 02:56:14;;;;;;;21.85;14.23;;;;;;;0.20;74.36;95710.63;4864807;29;20062;-41
2021/03/09 02:58:44;;;;;;;23.05;14.65;;;;;;;0.45;73.42;95703.59;4863008;29;20054;-40
2021/03/09 03:01:12;;;;;;;24.50;16.02;;;;;;;0.32;73.87;95712.19;4863126;29;20077;-41
2021/03/09 03:03:42;;;;;;;21.05;14.48;;;;;;;0.73;72.27;95704.00;4855310;29;20174;-40
2021/03/09 03:06:10;;;;;;;24.27;15.25;;;;;;;0.68;71.56;95695.00;4844858;29;20045;-40
2021/03/09 03:08:38;;;;;;;25.52;14.93;;;;;;;-0.08;75.11;95698.75;4845152;29;20082;-40
2021/03/09 03:11:06;;;;;;;26.42;15.73;;;;;;;-0.18;75.70;95693.44;4845055;29;20057;-41
2021/03/09 03:13:34;;;;;;;26.60;15.52;;;;;;;0.22;74.00;95703.16;4843831;29;20081;-41
2021/03/09 03:16:02;;;;;;;26.48;15.40;;;;;;;-0.02;74.88;95691.56;4844674;29;20058;-40
2021/03/09 03:18:36;;;;;;;23.30;14.65;;;;;;;0.48;73.13;95705.72;4842882;29;20057;-40
2021/03/09 03:21:05;;;;;;;23.65;15.32;;;;;;;0.05;73.95;95702.69;4848092;29;20049;-40
2021/03/09 03:23:32;;;;;;;23.95;15.68;;;;;;;0.03;74.47;95709.34;4860255;29;20061;-40
2021/03/09 03:26:04;;;;;;;23.48;15.60;;;;;;;0.53;72.40;95699.59;4843993;29;20078;-41
2021/03/09 03:28:34;;;;;;;24.70;15.20;;;;;;;0.12;73.31;95691.78;4855320;29;20456;-42
2021/03/09 03:31:03;;;;;;;27.90;16.08;;;;;;;-0.22;75.17;95713.69;4862522;29;20061;-40
2021/03/09 03:33:30;;;;;;;24.23;15.55;;;;;;;-0.61;75.79;95681.56;4849404;29;20518;-40
2021/03/09 03:36:03;;;;;;;26.33;15.88;;;;;;;-0.20;75.99;95710.75;4844410;29;20180;-40
2021/03/09 03:38:35;;;;;;;26.63;16.50;;;;;;;0.31;73.20;95710.59;4843016;29;20056;-41
2021/03/09 03:41:04;;;;;;;25.85;15.63;;;;;;;-0.09;74.92;95705.13;4845461;29;20061;-40
2021/03/09 03:43:31;;;;;;;25.13;16.00;;;;;;;-0.04;74.80;95707.75;4854787;29;20069;-41
2021/03/09 03:45:57;;;;;;;29.55;17.77;;;;;;;0.29;73.73;95710.84;4860652;29;20113;-41
2021/03/09 03:48:25;;;;;;;28.60;17.30;;;;;;;-0.01;74.55;95709.88;4876744;29;20515;-42
2021/03/09 03:50:54;;;;;;;24.77;15.60;;;;;;;-0.38;75.75;95694.28;4863883;29;20106;-39
2021/03/09 03:53:27;;;;;;;28.25;16.02;;;;;;;-0.20;75.39;95710.75;4853642;29;20057;-42
2021/03/09 03:56:28;;;;;;;26.75;16.13;;;;;;;-0.05;74.79;95705.38;4846240;29;20151;-41
2021/03/09 03:59:03;;;;;;;27.73;16.25;;;;;;;0.15;73.87;95702.66;4857592;29;20456;-41
2021/03/09 04:01:31;;;;;;;23.60;15.25;;;;;;;-0.35;75.94;95698.28;4865213;29;20053;-41
2021/03/09 04:04:04;;;;;;;25.25;16.70;;;;;;;-0.72;77.13;95700.16;4861790;29;20062;-41
2021/03/09 04:06:31;;;;;;;26.73;16.25;;;;;;;-0.38;76.02;95688.19;4845505;29;20102;-42
2021/03/09 04:09:01;;;;;;;25.45;16.75;;;;;;;-0.41;75.90;95692.16;4856617;29;20079;-47
2021/03/09 04:11:29;;;;;;;28.10;17.60;;;;;;;-0.37;76.28;95690.56;4857956;29;20045;-46
2021/03/09 04:13:57;;;;;;;29.38;17.15;;;;;;;-0.10;75.46;95689.44;4855232;29;20081;-43
2021/03/09 04:16:25;;;;;;;27.45;17.60;;;;;;;-0.16;74.58;95694.00;4856400;29;20522;-44
2021/03/09 04:18:53;;;;;;;27.58;16.92;;;;;;;-0.41;76.28;95689.50;4856229;29;20112;-41
2021/03/09 04:21:19;;;;;;;28.17;16.50;;;;;;;-0.61;77.12;95686.88;4866001;29;20041;-39
2021/03/09 04:23:47;;;;;;;26.33;18.00;;;;;;;-0.39;76.66;95692.72;4853052;29;20505;-41
2021/03/09 04:26:15;;;;;;;29.00;17.27;;;;;;;-0.45;76.54;95672.50;4844589;29;20115;-42
2021/03/09 04:28:42;;;;;;;27.52;17.42;;;;;;;-0.53;77.00;95675.69;4854148;29;20065;-40
2021/03/09 04:31:09;;;;;;;26.67;17.13;;;;;;;-0.43;76.46;95675.69;4860595;29;20084;-41
2021/03/09 04:33:35;;;;;;;28.17;17.30;;;;;;;-0.14;75.54;95667.13;4845413;29;20107;-42
2021/03/09 04:36:04;;;;;;;25.83;16.92;;;;;;;-0.55;75.96;95635.34;4842978;29;20077;-43
2021/03/09 04:38:31;;;;;;;26.00;16.17;;;;;;;-0.15;75.40;95665.53;4852974;29;20077;-40
2021/03/09 04:40:59;;;;;;;27.70;17.90;;;;;;;-0.67;76.62;95656.84;4852532;29;20050;-40
2021/03/09 04:43:26;;;;;;;27.30;16.65;;;;;;;-0.66;77.61;95674.38;4848215;29;20078;-39
2021/03/09 04:45:56;;;;;;;26.45;16.80;;;;;;;-0.56;77.30;95677.03;4865624;29;20101;-39
2021/03/09 04:48:25;;;;;;;32.20;19.58;;;;;;;-0.62;77.63;95672.78;4865430;29;20136;-40
2021/03/09 04:51:05;;;;;;;40.15;23.70;;;;;;;-0.51;77.26;95678.91;4865863;29;20057;-39
2021/03/09 04:53:32;;;;;;;32.55;19.23;;;;;;;-0.45;77.08;95687.66;4864692;29;20050;-39
2021/03/09 04:55:59;;;;;;;31.85;19.73;;;;;;;-0.53;77.38;95696.97;4865610;29;20081;-39
2021/03/09 04:58:26;;;;;;;30.35;17.70;;;;;;;-0.52;77.55;95677.28;4849323;29;20057;-41
2021/03/09 05:00:53;;;;;;;29.55;17.83;;;;;;;-0.49;77.47;95680.22;4869786;23;20084;-44
2021/03/09 05:03:20;;;;;;;29.92;17.48;;;;;;;-0.65;77.75;95677.84;4859921;29;20045;-46
2021/03/09 05:05:47;;;;;;;32.67;17.15;;;;;;;-0.59;77.68;95688.19;4860528;29;20062;-44
2021/03/09 05:08:13;;;;;;;28.83;17.50;;;;;;;-0.67;78.34;95679.97;4860280;29;20065;-44
2021/03/09 05:10:40;;;;;;;25.73;15.90;;;;;;;-0.74;78.71;95691.66;4859576;29;20049;-47
2021/03/09 05:13:06;;;;;;;27.02;16.92;;;;;;;-0.98;79.68;95685.28;4860307;29;20053;-45
2021/03/09 05:15:32;;;;;;;27.15;17.73;;;;;;;-0.76;79.02;95674.38;4858774;29;20647;-44
2021/03/09 05:17:59;;;;;;;29.60;17.30;;;;;;;-0.69;78.35;95676.78;4858517;29;20053;-43
2021/03/09 05:20:26;;;;;;;25.10;15.27;;;;;;;-1.08;79.50;95674.66;4859349;29;20060;-43
2021/03/09 05:22:53;;;;;;;28.02;16.60;;;;;;;-1.36;81.01;95684.72;4859803;29;20445;-43
2021/03/09 05:25:19;;;;;;;26.73;16.25;;;;;;;-1.30;81.15;95682.84;4841737;29;20060;-43
2021/03/09 05:27:47;;;;;;;25.67;15.40;;;;;;;-1.06;80.19;95678.63;4850199;29;20405;-43
2021/03/09 05:30:17;;;;;;;26.67;16.02;;;;;;;-0.85;79.13;95683.94;4860214;29;20085;-43
2021/03/09 05:32:44;;;;;;;32.20;17.48;;;;;;;-0.77;78.67;95683.44;4857902;29;20053;-42
2021/03/09 05:35:13;;;;;;;32.28;17.60;;;;;;;-0.39;76.52;95682.06;4859454;29;20057;-41
2021/03/09 05:37:40;;;;;;;26.55;15.73;;;;;;;-0.07;75.70;95680.91;4858534;29;20076;-44
2021/03/09 05:40:07;;;;;;;30.60;16.38;;;;;;;-0.07;74.97;95683.56;4848317;29;20065;-44
2021/03/09 05:42:34;;;;;;;28.65;16.65;;;;;;;-0.58;77.18;95679.16;4840302;29;20062;-47
2021/03/09 05:45:03;;;;;;;28.38;16.45;;;;;;;-0.63;77.98;95673.06;4840264;29;20065;-43
2021/03/09 05:47:30;;;;;;;29.30;17.50;;;;;;;-0.80;78.46;95678.66;4858375;29;20072;-44
2021/03/09 05:49:58;;;;;;;27.30;15.77;;;;;;;-0.62;78.13;95672.78;4858747;29;20049;-44
2021/03/09 05:53:15;;;;;;;27.95;17.27;;;;;;;-0.74;78.15;95686.34;4858972;29;20049;-44
2021/03/09 05:55:42;;;;;;;30.02;17.33;;;;;;;-0.91;78.94;95692.97;4841312;29;20388;-44
2021/03/09 05:58:09;;;;;;;28.50;17.35;;;;;;;-0.94;79.29;95686.34;4858529;29;20061;-46
2021/03/09 06:00:35;;;;;;;31.98;17.80;;;;;;;-0.76;78.29;95693.78;4858344;29;20085;-43
2021/03/09 06:03:02;;;;;;;28.33;16.95;;;;;;;-1.00;78.98;95698.81;4843089;29;20053;-45
2021/03/09 06:05:30;;;;;;;31.30;18.33;;;;;;;-0.94;78.99;95691.66;4855730;29;20427;-43
2021/03/09 06:07:57;;;;;;;26.95;17.67;;;;;;;-0.71;78.39;95687.69;4859563;29;20054;-46
2021/03/09 06:10:25;;;;;;;29.35;18.23;;;;;;;-1.02;79.05;95679.69;4854786;29;20046;-45
2021/03/09 06:12:52;;;;;;;30.85;17.40;;;;;;;-1.16;79.67;95683.94;4839768;29;20065;-44
2021/03/09 06:15:19;;;;;;;32.20;17.38;;;;;;;-1.18;79.82;95678.88;4842696;29;20068;-45
2021/03/09 06:17:58;;;;;;;29.45;17.05;;;;;;;-0.88;79.11;95690.59;4850147;29;20420;-45
2021/03/09 06:20:30;;;;;;;28.40;16.80;;;;;;;-0.94;78.99;95694.31;4857228;29;20053;-42
2021/03/09 06:23:01;;;;;;;26.75;16.65;;;;;;;-0.84;78.51;95704.16;4856312;29;20101;-45
2021/03/09 06:25:38;;;;;;;29.65;16.83;;;;;;;-0.79;78.68;95707.59;4857383;29;20465;-44
2021/03/09 06:28:07;;;;;;;28.50;17.83;;;;;;;-0.37;76.25;95705.72;4858940;29;20504;-45
2021/03/09 06:30:36;;;;;;;28.60;17.48;;;;;;;-1.07;79.79;95703.59;4856853;29;20057;-41
2021/03/09 06:33:04;;;;;;;28.33;16.90;;;;;;;-1.06;80.05;95699.09;4844442;29;20061;-42
2021/03/09 06:35:33;;;;;;;27.48;16.65;;;;;;;-1.02;79.66;95705.47;4859386;29;20095;-42
2021/03/09 06:38:20;;;;;;;27.38;16.83;;;;;;;-0.88;79.91;95703.06;4850550;29;20057;-42
2021/03/09 06:41:16;;;;;;;29.67;16.33;;;;;;;-0.96;80.16;95704.41;4850135;29;20074;-44
2021/03/09 06:43:45;;;;;;;28.73;17.50;;;;;;;-0.79;79.54;95704.13;4857154;29;20101;-45
2021/03/09 06:46:16;;;;;;;27.35;17.08;;;;;;;-0.93;79.91;95700.44;4842048;29;20061;-44
2021/03/09 06:48:44;;;;;;;28.88;17.17;;;;;;;-0.96;79.54;95707.06;4841283;29;20061;-42
2021/03/09 06:51:27;;;;;;;25.10;16.15;;;;;;;-0.76;79.32;95707.06;4840374;29;20560;-46
2021/03/09 06:54:11;;;;;;;26.95;16.45;;;;;;;-0.40;77.78;95719.53;4838972;29;20407;-45
2021/03/09 06:56:38;;;;;;;26.30;17.27;;;;;;;-0.43;77.60;95712.91;4839565;29;20437;-44
2021/03/09 06:59:22;;;;;;;26.95;17.05;;;;;;;0.26;75.05;95711.44;4843724;29;20049;-45
2021/03/09 07:02:05;;;;;;;31.85;17.25;;;;;;;0.06;75.85;95714.91;4853163;29;20243;-44
2021/03/09 07:04:39;;;;;;;30.20;17.58;;;;;;;-0.06;75.85;95719.75;4844380;29;20068;-49
2021/03/09 07:07:08;;;;;;;31.75;17.33;;;;;;;0.31;74.08;95718.59;4828169;29;20063;-46
2021/03/09 07:09:38;;;;;;;27.02;16.58;;;;;;;-0.16;75.75;95719.75;4839057;29;20049;-45
2021/03/09 07:12:10;;;;;;;29.23;16.60;;;;;;;-0.40;77.74;95728.31;4841815;29;20133;-45
2021/03/09 07:14:40;;;;;;;30.38;16.90;;;;;;;0.01;76.46;95720.28;4855147;29;20095;-44
2021/03/09 07:17:08;;;;;;;28.20;17.05;;;;;;;0.52;74.05;95719.28;4843287;29;20057;-46
2021/03/09 07:19:42;;;;;;;28.00;16.85;;;;;;;0.18;74.84;95717.28;4850223;29;20053;-45
2021/03/09 07:22:12;;;;;;;28.30;16.75;;;;;;;0.52;73.59;95733.41;4862571;29;20068;-46
2021/03/09 07:24:45;;;;;;;27.05;17.10;;;;;;;0.33;74.43;95737.75;4858713;29;20054;-45
2021/03/09 07:27:17;;;;;;;30.67;17.50;;;;;;;0.62;72.88;95732.56;4860926;29;20504;-45
2021/03/09 07:29:55;;;;;;;28.60;16.50;;;;;;;-0.02;76.14;95737.56;4855204;29;20652;-43
2021/03/09 07:32:23;;;;;;;29.13;17.08;;;;;;;0.15;75.72;95737.25;4852918;29;20193;-48
2021/03/09 07:34:50;;;;;;;30.85;16.83;;;;;;;0.21;74.62;95743.34;4859284;29;20056;-43
2021/03/09 07:37:17;;;;;;;27.88;16.40;;;;;;;0.20;74.61;95737.25;4856903;29;20137;-44
2021/03/09 07:39:44;;;;;;;38.13;17.88;;;;;;;0.14;75.55;95738.31;4860326;29;20740;-44
2021/03/09 07:42:11;;;;;;;29.63;17.35;;;;;;;0.28;74.86;95727.09;4859820;29;20166;-43
2021/03/09 07:44:39;;;;;;;28.33;17.23;;;;;;;1.01;71.86;95734.47;4858477;29;20046;-41
2021/03/09 07:47:08;;;;;;;31.17;18.40;;;;;;;0.74;72.29;95730.34;4859434;29;20149;-45
2021/03/09 07:49:36;;;;;;;27.23;17.08;;;;;;;1.00;70.88;95727.56;4842487;29;20034;-43
2021/03/09 07:52:14;;;;;;;28.92;17.17;;;;;;;0.19;74.07;95730.31;4857524;29;20047;-44
2021/03/09 07:55:03;;;;;;;26.70;16.80;;;;;;;0.54;72.21;95736.56;4851332;29;20050;-42
2021/03/09 07:57:30;;;;;;;26.92;16.73;;;;;;;0.91;70.74;95732.66;4856173;29;20044;-42
2021/03/09 08:00:00;;;;;;;26.35;16.88;;;;;;;0.68;71.89;95740.25;4854703;29;20121;-42
2021/03/09 08:02:38;;;;;;;31.58;16.90;;;;;;;1.54;69.38;95737.31;4854225;29;20795;-43
2021/03/09 08:05:06;;;;;;;28.23;16.50;;;;;;;1.69;67.41;95731.03;4855652;29;20046;-43
2021/03/09 08:07:53;;;;;;;28.75;16.77;;;;;;;1.76;68.16;95734.19;4855724;29;20037;-45
2021/03/09 08:10:34;;;;;;;29.42;16.77;;;;;;;1.46;68.80;95724.56;4854422;29;20041;-43
2021/03/09 08:13:09;;;;;;;28.25;16.70;;;;;;;1.26;69.90;95738.84;4856351;29;20045;-43
2021/03/09 08:15:36;;;;;;;26.27;17.58;;;;;;;1.76;67.39;95726.97;4856063;29;20408;-42
2021/03/09 08:18:21;;;;;;;28.50;17.45;;;;;;;1.85;66.96;95725.31;4855040;29;20060;-42
2021/03/09 08:20:55;;;;;;;31.23;17.85;;;;;;;1.57;67.86;95728.75;4856392;29;20081;-46
2021/03/09 08:23:34;;;;;;;32.72;17.80;;;;;;;1.59;69.35;95729.25;4853169;29;20080;-47
2021/03/09 08:26:29;;;;;;;29.67;16.25;;;;;;;1.57;68.93;95726.88;4855687;29;20061;-43
2021/03/09 08:28:55;;;;;;;26.90;16.70;;;;;;;2.15;66.65;95726.06;4852735;29;20062;-44
2021/03/09 08:31:27;;;;;;;29.17;16.55;;;;;;;2.20;66.15;95727.88;4856104;29;20049;-43
2021/03/09 08:34:06;;;;;;;24.77;16.05;;;;;;;2.19;66.31;95726.28;4848701;29;20102;-44
2021/03/09 08:36:36;;;;;;;29.23;16.77;;;;;;;2.49;65.79;95725.94;4855838;29;20064;-43
2021/03/09 08:39:11;;;;;;;24.67;16.02;;;;;;;2.32;65.56;95725.59;4856414;29;20107;-43
2021/03/09 08:41:37;;;;;;;25.40;16.50;;;;;;;2.22;66.01;95721.19;4853517;29;20132;-43
2021/03/09 08:44:24;;;;;;;26.65;16.52;;;;;;;1.99;67.31;95716.63;4851855;29;20102;-44
2021/03/09 08:47:05;;;;;;;28.40;17.10;;;;;;;1.87;68.28;95725.78;4858454;29;20137;-42
2021/03/09 08:49:35;;;;;;;33.25;18.02;;;;;;;2.33;66.93;95727.19;4860463;29;20083;-44
2021/03/09 08:52:14;;;;;;;28.73;17.00;;;;;;;2.27;66.80;95720.31;4859480;29;20072;-43
2021/03/09 08:54:45;;;;;;;30.52;17.00;;;;;;;2.10;67.53;95729.56;4859851;29;20049;-44
2021/03/09 08:57:17;;;;;;;28.83;16.40;;;;;;;2.16;67.04;95727.66;4861141;29;20053;-41
2021/03/09 08:59:46;;;;;;;30.25;17.10;;;;;;;2.52;65.96;95722.69;4859494;29;20435;-44
2021/03/09 09:02:21;;;;;;;33.90;16.98;;;;;;;2.53;65.31;95724.28;4861855;29;20061;-43
2021/03/09 09:04:55;;;;;;;27.23;17.33;;;;;;;2.48;65.29;95732.38;4859905;29;20133;-43
2021/03/09 09:07:31;;;;;;;30.05;16.10;;;;;;;2.23;66.79;95729.97;4858647;29;20056;-47
2021/03/09 09:10:04;;;;;;;28.00;16.15;;;;;;;3.09;62.52;95712.06;4858473;29;20105;-45
2021/03/09 09:12:33;;;;;;;26.85;15.80;;;;;;;3.02;62.86;95719.63;4860985;29;20053;-44
2021/03/09 09:15:06;;;;;;;25.65;15.82;;;;;;;2.48;64.21;95716.34;4858701;29;20045;-44
2021/03/09 09:17:33;;;;;;;23.40;15.98;;;;;;;2.68;63.52;95719.84;4855050;29;20065;-45
2021/03/09 09:20:03;;;;;;;22.67;15.10;;;;;;;3.06;61.67;95717.19;4857889;29;20060;-44
2021/03/09 09:22:30;;;;;;;25.17;15.90;;;;;;;2.94;62.06;95713.06;4853071;29;20052;-43
2021/03/09 09:24:57;;;;;;;24.35;15.50;;;;;;;3.12;62.28;95710.66;4855603;29;20045;-46
2021/03/09 09:27:24;;;;;;;20.67;13.65;;;;;;;3.32;61.37;95709.59;4858518;29;20050;-44
2021/03/09 09:29:56;;;;;;;21.67;13.57;;;;;;;3.40;59.73;95711.59;4859064;29;20065;-42
2021/03/09 09:32:23;;;;;;;21.13;14.57;;;;;;;3.34;59.45;95718.91;4851004;29;20050;-42
2021/03/09 09:34:58;;;;;;;24.88;14.20;;;;;;;3.56;58.63;95707.59;4858078;29;20045;-40
2021/03/09 09:37:25;;;;;;;25.70;14.48;;;;;;;4.26;56.17;95706.63;4851076;29;20149;-41
2021/03/09 09:39:52;;;;;;;21.33;13.63;;;;;;;3.88;58.20;95709.47;4838610;29;20164;-41
2021/03/09 09:42:20;;;;;;;21.33;14.73;;;;;;;3.97;56.89;95718.41;4855976;29;20868;-42
2021/03/09 09:44:47;;;;;;;26.40;15.43;;;;;;;3.70;58.06;95705.75;4851352;29;20050;-42
2021/03/09 09:47:15;;;;;;;24.88;14.45;;;;;;;4.51;55.68;95707.22;4841668;29;20061;-43
2021/03/09 09:49:44;;;;;;;26.48;15.68;;;;;;;4.16;57.97;95715.66;4851502;29;20424;-41
2021/03/09 09:52:15;;;;;;;21.92;14.55;;;;;;;4.29;56.29;95711.41;4857305;29;20113;-43
2021/03/09 09:54:53;;;;;;;22.58;13.55;;;;;;;4.02;55.81;95697.97;4857176;29;20568;-41
2021/03/09 09:57:21;;;;;;;23.83;13.77;;;;;;;4.34;55.26;95705.94;4857878;29;20057;-44
2021/03/09 09:59:48;;;;;;;22.60;14.45;;;;;;;4.65;54.95;95705.34;4851812;29;20109;-41
2021/03/09 10:02:22;;;;;;;22.65;14.23;;;;;;;4.75;54.54;95707.00;4826165;29;20066;-42
2021/03/09 10:04:51;;;;;;;21.73;14.25;;;;;;;3.96;56.34;95700.75;4844924;29;20049;-42
2021/03/09 10:07:20;;;;;;;23.45;13.88;;;;;;;4.41;55.47;95702.84;4855700;29;20420;-42
2021/03/09 10:10:07;;;;;;;22.88;12.38;;;;;;;4.94;52.02;95699.63;4851649;29;20064;-44
2021/03/09 10:12:44;;;;;;;19.35;12.57;;;;;;;5.12;52.82;95711.28;4857472;29;20052;-43
2021/03/09 10:15:11;;;;;;;22.38;12.75;;;;;;;4.88;53.57;95706.97;4853085;29;20057;-40
2021/03/09 10:17:38;;;;;;;18.13;11.57;;;;;;;4.61;53.21;95701.66;4857181;29;20092;-43
2021/03/09 10:20:20;;;;;;;19.20;12.45;;;;;;;4.75;52.40;95699.75;4852854;29;20105;-43
2021/03/09 10:22:47;;;;;;;19.63;11.63;;;;;;;4.42;52.75;95697.22;4855689;29;20060;-46
2021/03/09 10:25:15;;;;;;;20.15;12.60;;;;;;;4.56;52.76;95694.53;4829799;29;20079;-42
2021/03/09 10:27:43;;;;;;;24.02;13.18;;;;;;;4.74;53.68;95695.47;4841337;29;20053;-44
2021/03/09 10:30:10;;;;;;;21.95;12.00;;;;;;;5.16;52.57;95691.59;4840933;29;20147;-42
2021/03/09 10:32:51;;;;;;;18.35;12.25;;;;;;;5.45;51.46;95695.75;4853534;29;20049;-42
2021/03/09 10:35:18;;;;;;;17.55;10.80;;;;;;;6.09;48.84;95684.81;4850131;29;20046;-43
2021/03/09 10:37:45;;;;;;;16.38;11.50;;;;;;;6.53;47.41;95675.00;4857101;29;20057;-43
2021/03/09 10:40:14;;;;;;;16.45;10.70;;;;;;;6.57;47.23;95684.03;4854635;29;20054;-43
2021/03/09 10:42:48;;;;;;;17.23;11.05;;;;;;;5.45;48.83;95686.94;4850992;29;20092;-45
2021/03/09 10:45:19;;;;;;;15.68;11.45;;;;;;;5.43;49.65;95683.75;4852658;29;20089;-42
2021/03/09 10:48:00;;;;;;;17.13;10.13;;;;;;;6.05;48.88;95686.53;4854338;29;20059;-42
2021/03/09 10:50:28;;;;;;;21.20;10.52;;;;;;;6.03;47.71;95691.41;4853491;29;20077;-42
2021/03/09 10:52:55;;;;;;;17.58;9.98;;;;;;;6.62;45.11;95685.78;4852173;29;20106;-45
2021/03/09 10:55:22;;;;;;;16.58;8.93;;;;;;;6.78;43.90;95689.59;4852790;29;20499;-42
2021/03/09 10:57:49;;;;;;;16.70;9.98;;;;;;;7.01;43.27;95680.31;4854709;29;20052;-41
2021/03/09 11:00:18;;;;;;;15.82;8.57;;;;;;;6.36;46.56;95683.81;4849537;29;20073;-42
2021/03/09 11:02:45;;;;;;;14.10;9.32;;;;;;;6.24;46.71;95687.09;4854679;29;20072;-41
2021/03/09 11:05:13;;;;;;;14.20;10.48;;;;;;;6.00;47.96;95671.34;4834573;29;20704;-43
2021/03/09 11:07:42;;;;;;;15.70;10.32;;;;;;;6.47;45.91;95685.13;4849926;29;20062;-43
2021/03/09 11:10:14;;;;;;;14.02;9.77;;;;;;;7.05;45.05;95693.13;4849215;29;20136;-43
2021/03/09 11:12:40;;;;;;;13.93;8.82;;;;;;;6.67;42.58;95686.44;4858816;29;20049;-44
2021/03/09 11:15:08;;;;;;;13.15;8.70;;;;;;;7.16;43.49;95673.69;4848792;29;20058;-44
2021/03/09 11:17:35;;;;;;;15.77;8.40;;;;;;;6.45;43.85;95686.53;4853539;29;20124;-42
2021/03/09 11:20:04;;;;;;;14.90;9.13;;;;;;;6.50;44.41;95683.69;4857934;29;20058;-41
2021/03/09 11:22:31;;;;;;;11.65;7.75;;;;;;;7.03;42.01;95690.78;4858512;29;20061;-43
2021/03/09 11:24:58;;;;;;;13.43;8.50;;;;;;;7.46;40.71;95681.91;4854270;29;20049;-41
2021/03/09 11:27:24;;;;;;;12.13;7.97;;;;;;;7.25;41.35;95681.75;4852977;29;20053;-44
2021/03/09 11:29:51;;;;;;;13.93;8.60;;;;;;;8.50;39.39;95692.44;4850440;29;20061;-43
2021/03/09 11:32:17;;;;;;;12.00;7.95;;;;;;;9.79;35.28;95686.44;4852489;29;20065;-45
2021/03/09 11:34:44;;;;;;;13.90;9.20;;;;;;;9.86;33.99;95692.09;4851112;29;20149;-43
2021/03/09 11:37:11;;;;;;;13.93;8.85;;;;;;;10.31;33.27;95680.50;4852284;29;20470;-42
2021/03/09 11:39:37;;;;;;;13.93;7.97;;;;;;;9.66;34.37;95684.81;4851339;29;20065;-44